| 5/1/2026 | Fifth Third Bancorp | 275 | $32K | 0.0% | N/A | 0.006% | |
| 4/28/2026 | Meridian Investment Counsel Inc. | 19,775 | $2.30M | 0.5% | +16.9% | 0.469% | |
| 4/27/2026 | Private Advisor Group LLC | 8,626 | $1.00M | 0.0% | -14.1% | 0.207% | |
| 4/27/2026 | Trademark Financial Management LLC | 2,203 | $256K | 0.1% | N/A | 0.053% | |
| 4/24/2026 | Root Financial Partners LLC | 347 | $40K | 0.0% | +66.0% | 0.008% | |
| 4/23/2026 | Vicus Capital | 36,361 | $4.23M | 0.3% | N/A | 0.874% | |
| 2/19/2026 | First Growth Capital LLC | 5,396 | $442K | 0.4% | N/A | 0.147% | |
| 2/17/2026 | Cetera Investment Advisers | 26,024 | $2.13M | 0.0% | -4.3% | 0.711% | |
| 2/17/2026 | Tower Research Capital LLC TRC | 10,955 | $898K | 0.0% | -56.7% | 0.299% | |
| 2/17/2026 | Concorde Financial Corp | 2,571 | $211K | 0.2% | N/A | 0.070% | |
Get the Latest News and Ratings for XES and Related Stocks Enter your email address below to receive the latest news and analysts' ratings for SPDR S&P Oil & Gas Equipment & Services ETF and its competitors with MarketBeat's FREE daily newsletter.
|
| 2/17/2026 | Aspen Grove Capital LLC | 10,875 | $891K | 0.2% | -45.7% | 0.297% | |
| 2/17/2026 | Royal Bank of Canada | 31,411 | $2.58M | 0.0% | +23.0% | 0.858% | |
| 2/13/2026 | Stifel Financial Corp | 5,946 | $487K | 0.0% | N/A | 0.162% | |
| 2/13/2026 | Wells Fargo & Company MN | 37,135 | $3.04M | 0.0% | +78.0% | 1.015% | |
| 2/12/2026 | StoneX Group Inc. | 2,940 | $241K | 0.0% | N/A | 0.080% | |
| 2/11/2026 | LPL Financial LLC | 64,929 | $5.32M | 0.0% | +20.7% | 1.774% | |
| 2/11/2026 | Invst LLC | 16,337 | $1.34M | 0.1% | -0.7% | 0.446% | |
| 2/10/2026 | Goldman Sachs Group Inc. | 124,579 | $10.21M | 0.0% | +127.5% | 3.404% | |
| 2/10/2026 | Black Swift Group LLC | 72,505 | $5.94M | 1.0% | N/A | 1.981% | |
| 2/6/2026 | PNC Financial Services Group Inc. | 4,052 | $332K | 0.0% | -2.9% | 0.111% | |
| 2/4/2026 | Trek Financial LLC | 27,099 | $2.22M | 0.1% | +3.4% | 0.770% | |
| 1/30/2026 | New Harbor Financial Group LLC | 365,766 | $29.98M | 5.5% | N/A | 10.571% | |
| 1/26/2026 | CWM LLC | 24,231 | $1.99M | 0.0% | +616.3% | 0.730% | |
| 1/26/2026 | BCS Private Wealth Management Inc. | 16,900 | $1.39M | 0.5% | N/A | 0.509% | |
| 1/20/2026 | Meridian Investment Counsel Inc. | 16,920 | $1.39M | 0.3% | -4.5% | 0.502% | |
| 1/20/2026 | Stratos Wealth Advisors LLC | 5,300 | $434K | 0.0% | -50.0% | 0.157% | |
| 11/17/2025 | Flow Traders U.S. LLC | 24,753 | $1.79M | 0.1% | +23.2% | 0.862% | |
| 11/17/2025 | Bank of America Corp DE | 55,006 | $3.98M | 0.0% | +4.3% | 1.917% | |
| 11/14/2025 | Raymond James Financial Inc. | 59,159 | $4.28M | 0.0% | +1,260.6% | 2.061% | |
| 11/14/2025 | Financial Sense Advisors Inc. | 7,717 | $558K | 0.1% | -11.8% | 0.269% | |
| 11/14/2025 | Tower Research Capital LLC TRC | 25,289 | $1.83M | 0.1% | N/A | 0.881% | |
| 11/13/2025 | UBS Group AG | 12,597 | $911K | 0.0% | +1.3% | 0.439% | |
| 11/10/2025 | OneDigital Investment Advisors LLC | 4,486 | $325K | 0.0% | -9.9% | 0.156% | |
| 11/7/2025 | PNC Financial Services Group Inc. | 4,174 | $302K | 0.0% | -22.4% | 0.145% | |
| 11/6/2025 | Wealthfront Advisers LLC | 5,683 | $411K | 0.0% | -5.5% | 0.198% | |
| 11/5/2025 | Envestnet Asset Management Inc. | 5,304 | $384K | 0.0% | -8.7% | 0.185% | |
| 10/31/2025 | Trek Financial LLC | 26,212 | $1.90M | 0.1% | N/A | 0.930% | |
| 10/23/2025 | Meridian Investment Counsel Inc. | 17,720 | $1.28M | 0.3% | -1.1% | 0.654% | |
| 10/15/2025 | CWM LLC | 3,383 | $245K | 0.0% | +107.4% | 0.125% | |
| 9/4/2025 | Osaic Holdings Inc. | 1,423 | $90K | 0.0% | +50.7% | 0.063% | |
|
| 8/15/2025 | Bank of America Corp DE | 52,755 | $3.35M | 0.0% | -68.9% | 2.324% | |
| 8/14/2025 | Raymond James Financial Inc. | 4,348 | $276K | 0.0% | -4.3% | 0.192% | |
| 8/14/2025 | Concorde Financial Corp | 2,571 | $163K | 0.1% | N/A | 0.113% | |
| 8/14/2025 | BCS Private Wealth Management Inc. | 6,900 | $438K | 0.2% | N/A | 0.304% | |
| 8/13/2025 | Flow Traders U.S. LLC | 20,092 | $1.28M | 0.0% | +509.6% | 0.885% | |
| 8/12/2025 | Horizon Kinetics Asset Management LLC | 9,697 | $615K | 0.0% | -29.1% | 0.427% | |
| 8/12/2025 | JPMorgan Chase & Co. | 725 | $46K | 0.0% | -47.0% | 0.032% | |
| 8/8/2025 | Cetera Investment Advisers | 42,526 | $2.70M | 0.0% | +172.5% | 1.837% | |
| 8/8/2025 | PNC Financial Services Group Inc. | 5,378 | $341K | 0.0% | +70.6% | 0.232% | |
| 8/1/2025 | Envestnet Asset Management Inc. | 5,811 | $369K | 0.0% | -8.4% | 0.251% | |
| 7/31/2025 | Wealthfront Advisers LLC | 6,015 | $382K | 0.0% | +7.5% | 0.260% | |
| 7/29/2025 | Stratos Wealth Advisors LLC | 10,605 | $673K | 0.0% | N/A | 0.458% | |
| 7/22/2025 | Belpointe Asset Management LLC | 7,651 | $485K | 0.0% | -7.7% | 0.330% | |
| 7/16/2025 | Meridian Investment Counsel Inc. | 17,920 | $1.14M | 0.3% | +2.1% | 0.758% | |
| 2/13/2025 | Keystone Financial Group | 3,958 | $312K | 0.0% | N/A | 0.119% | |
| 2/12/2025 | JPMorgan Chase & Co. | 162,235 | $12.80M | 0.0% | +470.0% | 4.887% | |
| 1/15/2025 | Householder Group Estate & Retirement Specialist LLC | 4,675 | $368K | 0.3% | N/A | 0.141% | |
| 12/26/2024 | JPMorgan Chase & Co. | 28,463 | $2.30M | 0.0% | +7.7% | 0.857% | |
| 11/14/2024 | Flow Traders U.S. LLC | 3,724 | $301K | 0.0% | +37.3% | 0.112% | |
| 11/8/2024 | Avior Wealth Management LLC | 352 | $28K | 0.0% | -49.5% | 0.011% | |
| 8/14/2024 | Marshall Wace LLP | 2,562 | $233K | 0.0% | N/A | 0.077% | |
| 5/15/2024 | Transcendent Capital Group LLC | 906 | $84K | 0.0% | +33.0% | 0.027% | |
| 5/1/2024 | Janney Capital Management LLC | 53,227 | $4.96M | 0.3% | -2.2% | 1.603% | |
| 5/1/2024 | Janney Montgomery Scott LLC | 6,842 | $637K | 0.0% | -40.5% | 0.206% | |
| 3/1/2024 | Transcendent Capital Group LLC | 681 | $58K | 0.0% | N/A | 0.018% | |
| 2/14/2024 | Barometer Capital Management Inc. | 5,400 | $456K | 0.1% | -41.3% | 0.145% | |
| 2/8/2024 | Janney Montgomery Scott LLC | 11,507 | $972K | 0.0% | +13.2% | 0.309% | |
| 2/8/2024 | Janney Capital Management LLC | 54,435 | $4.60M | 0.3% | -49.9% | 1.463% | |
| 1/12/2024 | Financial Management Professionals Inc. | 25,313 | $2.14M | 0.3% | N/A | 0.680% | |
| 11/15/2023 | Baker Avenue Asset Management LP | 21,928 | $2.10M | 0.1% | N/A | 0.589% | |
| 11/8/2023 | Janney Montgomery Scott LLC | 10,168 | $974K | 0.0% | +4.9% | 0.273% | |
| 11/8/2023 | Barometer Capital Management Inc. | 9,200 | $881K | 0.3% | -8.0% | 0.247% | |
| 11/8/2023 | Janney Capital Management LLC | 108,726 | $10.41M | 0.8% | -4.3% | 2.923% | |
| 11/4/2023 | EverSource Wealth Advisors LLC | 312 | $30K | 0.0% | +721.1% | 0.008% | |
| 10/27/2023 | Whittier Trust Co. | 637 | $61K | 0.0% | +49.5% | 0.017% | |
| 10/18/2023 | CX Institutional | 4,645 | $445K | 0.0% | N/A | 0.125% | |
| 8/14/2023 | Horizon Kinetics Asset Management LLC | 37,969 | $2.97M | 0.1% | +29.2% | 1.021% | |
| 8/7/2023 | Keystone Financial Group | 4,571 | $357K | 0.1% | N/A | 0.123% | |
| 7/26/2023 | Janney Capital Management LLC | 113,584 | $8.88M | 0.6% | -3.1% | 2.547% | |
| 7/26/2023 | Janney Montgomery Scott LLC | 9,689 | $757K | 0.0% | +10.7% | 0.217% | |
| 6/1/2023 | ORG Partners LLC | 11,968 | $900K | 0.2% | N/A | 0.259% | |
| 5/11/2023 | EverSource Wealth Advisors LLC | 33,804 | $2.54M | 0.3% | N/A | 0.732% | |
| 5/5/2023 | Cullen Frost Bankers Inc. | 625 | $47K | 0.0% | N/A | 0.014% | |
| 4/28/2023 | Janney Capital Management LLC | 117,177 | $8.81M | 0.7% | N/A | 2.536% | |
| 4/28/2023 | Janney Montgomery Scott LLC | 8,753 | $658K | 0.0% | N/A | 0.189% | |
| 2/7/2023 | Hollencrest Capital Management | 7,073 | $564K | 0.1% | N/A | 0.172% | |
| 2/3/2023 | CX Institutional | 12,616 | $1.01M | 0.1% | -11.7% | 0.306% | |
| 1/24/2023 | RFP Financial Group LLC | 1,740 | $139K | 0.1% | N/A | 0.042% | |
| 11/14/2022 | Barometer Capital Management Inc. | 5,400 | $298K | 0.1% | N/A | 0.117% | |
| 9/16/2022 | Private Trust Co. NA | 1,000 | $60K | 0.0% | N/A | 0.023% | |
|
| 8/11/2022 | JPMorgan Chase & Co. | 748,968 | $44.70M | 0.0% | +457.0% | 17.581% | |
| 5/6/2022 | Washburn Capital Management Inc. | 7,115 | $534K | 0.3% | +71.9% | 0.154% | |
| 5/2/2022 | Migdal Insurance & Financial Holdings Ltd. | 770 | $58K | 0.0% | N/A | 0.017% | |
| 4/18/2022 | Hollencrest Capital Management | 4,124 | $309K | 0.0% | N/A | 0.088% | |
| 4/13/2022 | New Harbor Financial Group LLC | 376,400 | $28.25M | 10.0% | N/A | 8.337% | |